Time;durP1;ratioP1;P1;durP2;ratioP2;P2;SDS_P1;SDS_P2;PMS_P1;PMS_P2;Temp;Humidity;BMP_temperature;BMP_pressure;BME280_temperature;BME280_humidity;BME280_pressure;Samples;Min_cycle;Max_cycle;Signal;HPM_P1;HPM_P2
2023/03/03 00:02:16;;;;;;;52.03;24.60;;;;;;;-145.18;100.00;46685.78;5013549;28;20053;-68
2023/03/03 00:04:42;;;;;;;56.77;26.23;;;;;;;-145.18;100.00;46679.94;5013451;28;20057;-68
2023/03/03 00:07:07;;;;;;;50.23;24.53;;;;;;;-145.18;100.00;46672.13;5013483;28;20030;-68
2023/03/03 00:09:32;;;;;;;51.50;25.53;;;;;;;-145.18;100.00;46676.03;5013490;28;20034;-68
2023/03/03 00:12:01;;;;;;;53.73;24.57;;;;;;;-145.18;100.00;46676.03;5013556;28;20479;-68
2023/03/03 00:14:31;;;;;;;49.95;23.67;;;;;;;-145.18;100.00;46672.13;5013456;28;20114;-68
2023/03/03 00:17:13;;;;;;;52.40;24.00;;;;;;;-145.18;100.00;46681.88;5013515;28;20088;-68
2023/03/03 00:19:40;;;;;;;51.00;25.02;;;;;;;-145.18;100.00;46677.97;5013057;28;20434;-68
2023/03/03 00:22:19;;;;;;;47.35;22.80;;;;;;;-145.18;100.00;46681.88;5013485;28;20092;-68
2023/03/03 00:24:46;;;;;;;45.38;21.67;;;;;;;-145.18;100.00;46679.94;5013386;28;20507;-68
2023/03/03 00:27:43;;;;;;;49.08;22.52;;;;;;;-145.18;100.00;46685.78;5013030;28;20621;-68
2023/03/03 00:30:26;;;;;;;47.22;22.05;;;;;;;-145.18;100.00;46674.06;4973916;28;20061;-68
2023/03/03 00:32:54;;;;;;;48.58;23.27;;;;;;;-145.18;100.00;46674.06;5013114;28;20030;-68
2023/03/03 00:35:29;;;;;;;41.53;20.52;;;;;;;-145.18;100.00;46672.13;5013166;28;20100;-68
2023/03/03 00:38:09;;;;;;;43.80;22.05;;;;;;;-145.18;100.00;46677.97;5012968;28;20037;-68
2023/03/03 00:40:37;;;;;;;42.72;21.33;;;;;;;-145.18;100.00;46674.06;5013025;28;20034;-68
2023/03/03 00:43:17;;;;;;;41.30;20.45;;;;;;;-145.18;100.00;46677.97;5012778;28;20030;-68
2023/03/03 00:45:45;;;;;;;46.40;21.08;;;;;;;-145.18;100.00;46677.97;5012674;28;20065;-68
2023/03/03 00:48:36;;;;;;;40.00;20.08;;;;;;;-145.18;100.00;46672.13;5012699;28;20037;-67
2023/03/03 00:51:28;;;;;;;44.22;21.13;;;;;;;-145.18;100.00;46674.06;5012832;28;20113;-68
2023/03/03 00:53:54;;;;;;;38.58;19.38;;;;;;;-145.18;100.00;46674.06;5013330;28;20065;-68
2023/03/03 00:56:19;;;;;;;33.15;16.77;;;;;;;-145.18;100.00;46674.06;5012671;28;20076;-68
2023/03/03 00:58:46;;;;;;;35.13;17.47;;;;;;;-145.18;100.00;46670.16;5012555;28;20359;-68
2023/03/03 01:01:13;;;;;;;38.85;18.13;;;;;;;-145.18;100.00;46677.97;5011600;28;20030;-68
2023/03/03 01:03:38;;;;;;;37.40;18.52;;;;;;;-145.18;100.00;46676.03;5012075;28;20026;-68
2023/03/03 01:06:04;;;;;;;37.73;18.07;;;;;;;-145.18;100.00;46676.03;5012111;28;20087;-68
2023/03/03 01:08:29;;;;;;;31.17;16.30;;;;;;;-145.18;100.00;46676.03;5012263;28;20040;-68
2023/03/03 01:10:57;;;;;;;31.97;16.97;;;;;;;-145.18;100.00;46676.03;5012601;28;20623;-67
2023/03/03 01:13:27;;;;;;;32.33;16.33;;;;;;;-145.18;100.00;46672.13;5012293;28;20040;-68
2023/03/03 01:15:53;;;;;;;35.13;18.02;;;;;;;-145.18;100.00;46674.06;5012387;28;20109;-68
2023/03/03 01:18:18;;;;;;;34.77;17.57;;;;;;;-145.18;100.00;46672.13;5011894;28;20351;-68
2023/03/03 01:20:44;;;;;;;34.07;17.43;;;;;;;-145.18;100.00;46672.13;5012064;28;20084;-68
2023/03/03 01:23:09;;;;;;;31.47;17.33;;;;;;;-145.18;100.00;46674.06;5012555;28;20402;-68
2023/03/03 01:25:35;;;;;;;34.83;16.00;;;;;;;-145.18;100.00;46676.03;5012155;28;20096;-68
2023/03/03 01:28:01;;;;;;;31.57;16.07;;;;;;;-145.18;100.00;46674.06;5012014;28;20029;-68
2023/03/03 01:30:26;;;;;;;28.07;16.07;;;;;;;-145.18;100.00;46679.94;5012283;28;20057;-68
2023/03/03 01:32:52;;;;;;;33.83;16.80;;;;;;;-145.18;100.00;46672.13;5011715;28;20096;-68
2023/03/03 01:35:18;;;;;;;31.43;15.57;;;;;;;-145.18;100.00;46668.22;5012260;28;20026;-68
2023/03/03 01:37:43;;;;;;;31.73;16.57;;;;;;;-145.18;100.00;46672.13;5011931;28;20029;-68
2023/03/03 01:40:19;;;;;;;31.87;16.67;;;;;;;-145.18;100.00;46674.06;5012117;28;20441;-68
2023/03/03 01:42:45;;;;;;;28.40;14.57;;;;;;;-145.18;100.00;46677.97;5011537;28;20044;-67
2023/03/03 01:45:15;;;;;;;39.07;16.77;;;;;;;-145.18;100.00;46672.13;5011619;28;20030;-67
2023/03/03 01:48:04;;;;;;;32.25;17.00;;;;;;;-145.18;100.00;46672.13;5011204;28;20033;-67
2023/03/03 01:50:35;;;;;;;35.70;18.42;;;;;;;-145.18;100.00;46674.06;4997612;28;20111;-67
2023/03/03 01:53:03;;;;;;;30.58;18.20;;;;;;;-145.18;100.00;46670.16;5011613;28;20022;-67
2023/03/03 01:55:33;;;;;;;39.38;20.85;;;;;;;-145.18;100.00;46674.06;5011379;28;20030;-67
2023/03/03 01:58:06;;;;;;;35.67;18.65;;;;;;;-145.18;100.00;46674.06;5011355;28;20056;-67
2023/03/03 02:00:35;;;;;;;44.05;21.85;;;;;;;-145.18;100.00;46676.03;5011251;28;20120;-67
2023/03/03 02:03:01;;;;;;;44.42;22.52;;;;;;;-145.18;100.00;46676.03;4993683;28;20029;-67
2023/03/03 02:05:27;;;;;;;49.80;22.97;;;;;;;-145.18;100.00;46672.13;5011315;28;20148;-67
2023/03/03 02:07:52;;;;;;;46.00;23.63;;;;;;;-145.18;100.00;46670.16;5011126;28;20025;-67
2023/03/03 02:10:21;;;;;;;46.23;23.80;;;;;;;-145.18;100.00;46674.06;5011508;28;20548;-67
2023/03/03 02:12:57;;;;;;;46.28;24.00;;;;;;;-145.18;100.00;46668.22;5010768;28;20072;-68
2023/03/03 02:15:31;;;;;;;47.20;24.93;;;;;;;-145.18;100.00;46662.34;5011560;28;20052;-67
2023/03/03 02:17:59;;;;;;;61.28;27.65;;;;;;;-145.18;100.00;46674.06;5010851;28;20029;-67
2023/03/03 02:20:38;;;;;;;61.15;29.48;;;;;;;-145.18;100.00;46670.16;5010993;28;20044;-67
2023/03/03 02:23:23;;;;;;;64.32;32.80;;;;;;;-145.18;100.00;46666.25;5011180;28;20080;-67
2023/03/03 02:25:59;;;;;;;72.63;31.83;;;;;;;-145.18;100.00;46672.13;5011012;28;20117;-67
2023/03/03 02:28:29;;;;;;;74.63;33.05;;;;;;;-145.18;100.00;46668.22;5011005;28;20128;-67
2023/03/03 02:30:57;;;;;;;59.78;27.33;;;;;;;-145.18;100.00;46672.13;5011219;28;20640;-67
2023/03/03 02:33:22;;;;;;;51.33;23.13;;;;;;;-145.18;100.00;46672.13;5010568;28;20033;-67
2023/03/03 02:35:48;;;;;;;44.03;22.33;;;;;;;-145.18;100.00;46672.13;5010826;28;20084;-67
2023/03/03 02:38:26;;;;;;;48.47;22.60;;;;;;;-145.18;100.00;46672.13;5010779;28;20487;-67
2023/03/03 02:41:08;;;;;;;55.65;25.27;;;;;;;-145.18;100.00;46668.22;5010732;28;20076;-67
2023/03/03 02:43:49;;;;;;;62.60;28.77;;;;;;;-145.18;100.00;46670.16;5010393;28;20400;-67
2023/03/03 02:46:15;;;;;;;62.47;30.15;;;;;;;-145.18;100.00;46672.13;5010860;28;20034;-67
2023/03/03 02:48:40;;;;;;;59.03;26.67;;;;;;;-145.18;100.00;46666.25;5010430;28;20492;-67
2023/03/03 02:51:05;;;;;;;49.40;23.57;;;;;;;-145.18;100.00;46666.25;5010810;28;20037;-67
2023/03/03 02:53:31;;;;;;;51.57;23.47;;;;;;;-145.18;100.00;46670.16;5010456;28;20025;-68
2023/03/03 02:55:56;;;;;;;44.33;20.43;;;;;;;-145.18;100.00;46668.22;5010809;28;20423;-67
2023/03/03 02:58:21;;;;;;;48.50;20.83;;;;;;;-145.18;100.00;46670.16;5010224;28;20034;-67
2023/03/03 03:03:22;;;;;;;48.50;22.58;;;;;;;-145.18;100.00;46674.06;5060543;23;20045;-67
2023/03/03 03:05:47;;;;;;;49.73;20.97;;;;;;;-145.18;100.00;46670.16;5050157;28;20044;-67
2023/03/03 03:08:13;;;;;;;47.80;22.03;;;;;;;-145.18;100.00;46668.22;5050170;28;20493;-67
2023/03/03 03:10:38;;;;;;;48.63;21.10;;;;;;;-145.18;100.00;46662.34;5049967;28;20029;-67
2023/03/03 03:13:03;;;;;;;53.23;22.00;;;;;;;-145.18;100.00;46668.22;5049800;28;20484;-67
2023/03/03 03:15:29;;;;;;;50.43;22.53;;;;;;;-145.18;100.00;46666.25;5050248;28;20090;-67
2023/03/03 03:17:54;;;;;;;53.10;22.83;;;;;;;-145.18;100.00;46664.31;5049771;28;20065;-67
2023/03/03 03:20:20;;;;;;;49.33;22.10;;;;;;;-145.18;100.00;46666.25;5049944;28;20035;-67
2023/03/03 03:22:46;;;;;;;50.57;22.90;;;;;;;-145.18;100.00;46664.31;5049493;28;20040;-68
2023/03/03 03:25:11;;;;;;;52.23;22.03;;;;;;;-145.18;100.00;46666.25;5049676;28;20037;-67
2023/03/03 03:27:36;;;;;;;54.03;22.83;;;;;;;-145.18;100.00;46666.25;5049686;28;20501;-67
2023/03/03 03:30:02;;;;;;;49.40;21.87;;;;;;;-145.18;100.00;46670.16;5049512;28;20508;-67
2023/03/03 03:32:27;;;;;;;55.40;23.50;;;;;;;-145.18;100.00;46666.25;5050023;28;20219;-67
2023/03/03 03:34:53;;;;;;;51.60;22.10;;;;;;;-145.18;100.00;46668.22;5049533;28;20056;-67
2023/03/03 03:37:18;;;;;;;56.33;23.80;;;;;;;-145.18;100.00;46670.16;5049648;28;20029;-67
2023/03/03 03:39:44;;;;;;;51.53;22.47;;;;;;;-145.18;100.00;46664.31;5049648;28;20116;-67
2023/03/03 03:42:10;;;;;;;51.83;23.00;;;;;;;-145.18;100.00;46664.31;5049875;28;20079;-67
2023/03/03 03:44:35;;;;;;;60.47;23.63;;;;;;;-145.18;100.00;46670.16;5049801;28;20182;-67
2023/03/03 03:47:01;;;;;;;51.17;22.27;;;;;;;-145.18;100.00;46658.44;5049456;28;20119;-67
2023/03/03 03:49:26;;;;;;;49.80;22.47;;;;;;;-145.18;100.00;46666.25;5049662;28;20163;-67
2023/03/03 03:51:52;;;;;;;56.40;22.90;;;;;;;-145.18;100.00;46666.25;5049457;28;20370;-68
2023/03/03 03:54:17;;;;;;;45.93;22.23;;;;;;;-145.18;100.00;46668.22;5049724;28;20033;-67
2023/03/03 03:56:42;;;;;;;51.33;21.30;;;;;;;-145.18;100.00;46670.16;5049541;28;20486;-67
2023/03/03 03:59:08;;;;;;;52.10;21.93;;;;;;;-145.18;100.00;46668.22;5049438;28;20029;-67
2023/03/03 04:01:33;;;;;;;55.87;25.10;;;;;;;-145.18;100.00;46668.22;5042706;28;20057;-68
2023/03/03 04:03:59;;;;;;;58.60;25.37;;;;;;;-145.18;100.00;46664.31;5029186;28;20049;-68
2023/03/03 04:06:24;;;;;;;58.97;25.00;;;;;;;-145.18;100.00;46668.22;5029837;28;20032;-68
2023/03/03 04:08:50;;;;;;;74.97;30.57;;;;;;;-145.18;100.00;46674.06;5029135;28;20068;-68
2023/03/03 04:11:15;;;;;;;78.27;30.30;;;;;;;-145.18;100.00;46668.22;5029655;28;20477;-68
2023/03/03 04:13:41;;;;;;;76.87;30.77;;;;;;;-145.18;100.00;46660.41;5029362;28;20486;-68
2023/03/03 04:16:06;;;;;;;71.50;28.77;;;;;;;-145.18;100.00;46672.13;5029450;28;20021;-67
2023/03/03 04:18:32;;;;;;;69.73;28.07;;;;;;;-145.18;100.00;46670.16;5029428;28;20045;-67
2023/03/03 04:20:57;;;;;;;70.00;27.03;;;;;;;-145.18;100.00;46664.31;5029315;28;20120;-68
2023/03/03 04:23:22;;;;;;;61.17;26.87;;;;;;;-145.18;100.00;46664.31;5029407;28;20069;-67
2023/03/03 04:25:48;;;;;;;68.47;27.30;;;;;;;-145.18;100.00;46666.25;5029446;28;20040;-67
2023/03/03 04:28:15;;;;;;;64.67;25.53;;;;;;;-145.18;100.00;46666.25;5029509;28;20040;-67
2023/03/03 04:30:41;;;;;;;69.30;26.50;;;;;;;-145.18;100.00;46662.34;5029504;28;20037;-68
2023/03/03 04:33:06;;;;;;;65.63;25.93;;;;;;;-145.18;100.00;46670.16;5029166;28;20031;-68
2023/03/03 04:35:31;;;;;;;63.70;25.17;;;;;;;-145.18;100.00;46668.22;5029777;28;20413;-67
2023/03/03 04:37:57;;;;;;;69.67;27.20;;;;;;;-145.18;100.00;46668.22;5032616;28;20030;-67
2023/03/03 04:40:22;;;;;;;61.53;27.10;;;;;;;-145.18;100.00;46664.31;5032936;28;20038;-67
2023/03/03 04:42:47;;;;;;;64.10;25.10;;;;;;;-145.18;100.00;46670.16;5032532;28;20029;-67
2023/03/03 04:45:13;;;;;;;62.10;25.40;;;;;;;-145.18;100.00;46666.25;5033169;28;20030;-68
2023/03/03 04:47:38;;;;;;;54.23;20.70;;;;;;;-145.18;100.00;46668.22;5032729;28;20034;-68
2023/03/03 04:50:04;;;;;;;59.30;25.67;;;;;;;-145.18;100.00;46662.34;5032577;28;20064;-67
2023/03/03 04:52:29;;;;;;;61.40;23.60;;;;;;;-145.18;100.00;46668.22;5032547;28;20096;-67
2023/03/03 04:54:55;;;;;;;64.27;23.80;;;;;;;-145.18;100.00;46664.31;5032491;28;20036;-68
2023/03/03 04:57:20;;;;;;;60.27;22.43;;;;;;;-145.18;100.00;46668.22;5032386;28;20029;-67
2023/03/03 04:59:46;;;;;;;51.50;21.47;;;;;;;-145.18;100.00;46670.16;5032278;28;20029;-67
2023/03/03 05:02:12;;;;;;;53.90;21.47;;;;;;;-145.18;100.00;46668.22;5032240;28;20537;-67
2023/03/03 05:04:37;;;;;;;61.25;23.13;;;;;;;-145.18;100.00;46672.13;5032608;28;20049;-67
2023/03/03 05:07:03;;;;;;;52.23;21.63;;;;;;;-145.18;100.00;46666.25;5032399;28;20374;-68
2023/03/03 05:09:28;;;;;;;66.90;25.23;;;;;;;-145.18;100.00;46668.22;5032556;28;20410;-67
2023/03/03 05:11:54;;;;;;;60.83;24.90;;;;;;;-145.18;100.00;46664.31;5032122;28;20502;-68
2023/03/03 05:14:19;;;;;;;55.83;22.23;;;;;;;-145.18;100.00;46670.16;5032130;28;20495;-68
2023/03/03 05:16:45;;;;;;;59.07;23.83;;;;;;;-145.18;100.00;46666.25;5032134;28;20037;-67
2023/03/03 05:19:10;;;;;;;56.27;22.87;;;;;;;-145.18;100.00;46668.22;5014814;28;20036;-67
2023/03/03 05:21:36;;;;;;;57.17;21.90;;;;;;;-145.18;100.00;46666.25;5032240;28;20053;-67
2023/03/03 05:24:01;;;;;;;53.00;21.07;;;;;;;-145.18;100.00;46670.16;5031344;28;20049;-68
2023/03/03 05:26:27;;;;;;;55.07;20.27;;;;;;;-145.18;100.00;46666.25;5031865;28;20478;-67
2023/03/03 05:28:52;;;;;;;51.57;21.00;;;;;;;-145.18;100.00;46668.22;5014160;28;20029;-67
2023/03/03 05:31:17;;;;;;;48.90;19.77;;;;;;;-145.18;100.00;46664.31;5014473;28;20037;-68
2023/03/03 05:33:43;;;;;;;52.50;19.90;;;;;;;-145.18;100.00;46672.13;5014061;28;20032;-68
2023/03/03 05:36:08;;;;;;;63.10;22.27;;;;;;;-145.18;100.00;46676.03;5031714;28;20025;-68
2023/03/03 05:38:33;;;;;;;67.83;24.07;;;;;;;-145.18;100.00;46668.22;5031736;28;20037;-68
2023/03/03 05:41:00;;;;;;;66.47;24.30;;;;;;;-145.18;100.00;46668.22;5031599;28;20445;-67
2023/03/03 05:43:25;;;;;;;64.38;24.52;;;;;;;-145.18;100.00;46670.16;5031556;28;20037;-67
2023/03/03 05:45:57;;;;;;;59.67;22.10;;;;;;;-145.18;100.00;46672.13;5031500;28;20125;-67
2023/03/03 05:48:22;;;;;;;62.08;23.60;;;;;;;-145.18;100.00;46668.22;5030952;28;20430;-68
2023/03/03 05:50:48;;;;;;;56.03;20.90;;;;;;;-145.18;100.00;46666.25;5031493;28;20112;-67
2023/03/03 05:53:13;;;;;;;45.33;18.43;;;;;;;-145.18;100.00;46668.22;5031707;28;20080;-67
2023/03/03 05:55:38;;;;;;;50.93;17.93;;;;;;;-145.18;100.00;46674.06;5031461;28;20041;-67
2023/03/03 05:58:04;;;;;;;49.80;17.70;;;;;;;-145.18;100.00;46666.25;5031075;28;20040;-67
2023/03/03 06:00:29;;;;;;;45.43;18.53;;;;;;;-145.18;100.00;46664.31;5031408;28;20034;-67
2023/03/03 06:02:55;;;;;;;52.30;18.10;;;;;;;-145.18;100.00;46668.22;5030878;28;20478;-67
2023/03/03 06:05:21;;;;;;;49.95;16.85;;;;;;;-145.18;100.00;46666.25;5031164;28;20539;-68
2023/03/03 06:07:46;;;;;;;53.93;17.20;;;;;;;-145.18;100.00;46668.22;5030890;28;20077;-67
2023/03/03 06:10:12;;;;;;;48.17;18.17;;;;;;;-145.18;100.00;46666.25;5031528;28;20497;-67
2023/03/03 06:12:38;;;;;;;52.20;17.97;;;;;;;-145.18;100.00;46664.31;5031034;28;20029;-67
2023/03/03 06:15:05;;;;;;;53.10;17.47;;;;;;;-145.18;100.00;46662.34;5030883;28;20061;-67
2023/03/03 06:17:30;;;;;;;48.05;18.48;;;;;;;-145.18;100.00;46670.16;5030944;28;20057;-68
2023/03/03 06:19:56;;;;;;;57.47;18.50;;;;;;;-145.18;100.00;46668.22;5030805;28;20139;-67
2023/03/03 06:22:21;;;;;;;59.50;20.60;;;;;;;-145.18;100.00;46660.41;5030635;28;20057;-67
2023/03/03 06:24:46;;;;;;;56.43;22.20;;;;;;;-145.18;100.00;46664.31;4996670;28;20033;-68
2023/03/03 06:27:12;;;;;;;67.80;23.10;;;;;;;-145.18;100.00;46668.22;5030934;28;20041;-68
2023/03/03 06:29:37;;;;;;;63.70;21.60;;;;;;;-145.18;100.00;46664.31;5030762;28;20037;-67
2023/03/03 06:32:03;;;;;;;70.47;23.23;;;;;;;-145.18;100.00;46666.25;5030637;28;20045;-68
2023/03/03 06:34:29;;;;;;;57.13;21.67;;;;;;;-145.18;100.00;46668.22;5030633;28;20033;-67
2023/03/03 06:36:55;;;;;;;49.10;18.20;;;;;;;-145.18;100.00;46660.41;5030484;28;20350;-68
2023/03/03 06:39:21;;;;;;;52.63;19.63;;;;;;;-145.18;100.00;46660.41;5030333;28;20139;-67
2023/03/03 06:41:46;;;;;;;50.23;17.77;;;;;;;-145.18;100.00;46658.44;5030422;28;20107;-68
2023/03/03 06:44:12;;;;;;;49.67;18.03;;;;;;;-145.18;100.00;46666.25;5030519;28;20106;-67
2023/03/03 06:46:37;;;;;;;51.27;17.23;;;;;;;-145.18;100.00;46672.13;5030526;28;20041;-67
2023/03/03 06:49:03;;;;;;;50.33;17.27;;;;;;;-145.18;100.00;46658.44;5030312;28;20069;-67
2023/03/03 06:51:35;;;;;;;52.03;17.57;;;;;;;-145.18;100.00;46666.25;5030542;28;20026;-67
2023/03/03 06:54:26;;;;;;;51.25;16.92;;;;;;;-145.18;100.00;46668.22;5030134;28;20164;-67
2023/03/03 06:56:56;;;;;;;48.60;18.45;;;;;;;-145.18;100.00;46660.41;5030305;28;20041;-67
2023/03/03 06:59:22;;;;;;;56.35;16.90;;;;;;;-145.18;100.00;46660.41;5029299;28;20033;-68
2023/03/03 07:01:49;;;;;;;50.72;18.90;;;;;;;-145.18;100.00;46658.44;5029883;28;20034;-68
2023/03/03 07:04:18;;;;;;;50.95;17.65;;;;;;;-145.18;100.00;46660.41;5030275;28;20094;-68
2023/03/03 07:06:44;;;;;;;61.60;19.33;;;;;;;-145.18;100.00;46658.44;5030282;28;20041;-67
2023/03/03 07:09:37;;;;;;;56.15;18.30;;;;;;;-145.18;100.00;46658.44;5029902;28;20060;-68
2023/03/03 07:12:12;;;;;;;56.75;17.55;;;;;;;-145.18;100.00;46660.41;5029967;28;20033;-68
2023/03/03 07:14:46;;;;;;;54.58;16.92;;;;;;;-145.18;100.00;46664.31;5029995;28;20401;-68
2023/03/03 07:17:19;;;;;;;63.35;19.30;;;;;;;-145.18;100.00;46658.44;5030345;28;20500;-67
2023/03/03 07:19:46;;;;;;;64.75;19.33;;;;;;;-145.18;100.00;46662.34;5029695;28;20049;-67
2023/03/03 07:22:11;;;;;;;54.40;18.85;;;;;;;-145.18;100.00;46660.41;5030422;28;20120;-67
2023/03/03 07:24:36;;;;;;;60.73;18.87;;;;;;;-145.18;100.00;46660.41;5030153;28;20492;-68
2023/03/03 07:27:04;;;;;;;65.33;20.03;;;;;;;-145.18;100.00;46662.34;5029821;28;20562;-68
2023/03/03 07:29:30;;;;;;;54.20;19.85;;;;;;;-145.18;100.00;46662.34;5030072;28;20033;-67
2023/03/03 07:31:57;;;;;;;60.23;20.10;;;;;;;-145.18;100.00;46658.44;5029612;28;20559;-68
2023/03/03 07:34:25;;;;;;;66.38;19.92;;;;;;;-145.18;100.00;46660.41;5029781;28;20032;-68
2023/03/03 07:37:00;;;;;;;61.45;19.65;;;;;;;-145.18;100.00;46656.50;5029659;28;20121;-68
2023/03/03 07:39:39;;;;;;;66.63;21.02;;;;;;;-145.18;100.00;46656.50;5029755;28;20049;-67
2023/03/03 07:42:28;;;;;;;68.53;21.75;;;;;;;-145.18;100.00;46658.44;5029645;28;20026;-68
2023/03/03 07:44:58;;;;;;;66.07;19.50;;;;;;;-145.18;100.00;46656.50;5029901;28;20033;-68
2023/03/03 07:47:27;;;;;;;68.85;21.58;;;;;;;-145.18;100.00;46660.41;5029797;28;20117;-68
2023/03/03 07:49:59;;;;;;;57.53;20.58;;;;;;;-145.18;100.00;46656.50;5029627;28;20038;-68
2023/03/03 07:52:39;;;;;;;62.35;19.55;;;;;;;-145.18;100.00;46656.50;5029728;28;20034;-67
2023/03/03 07:55:29;;;;;;;67.57;20.27;;;;;;;-145.18;100.00;46656.50;5029498;28;20028;-68
2023/03/03 07:57:58;;;;;;;60.30;19.15;;;;;;;-145.18;100.00;46654.53;5029285;28;20405;-67
2023/03/03 08:00:26;;;;;;;57.15;18.48;;;;;;;-145.18;100.00;46654.53;5030173;28;20022;-68
2023/03/03 08:03:11;;;;;;;64.75;19.88;;;;;;;-145.18;100.00;46656.50;5028960;28;20061;-67
2023/03/03 08:05:41;;;;;;;57.55;19.67;;;;;;;-145.18;100.00;46654.53;5029567;28;20021;-68
2023/03/03 08:08:18;;;;;;;62.75;19.35;;;;;;;-145.18;100.00;46652.59;5029221;28;20021;-68
2023/03/03 08:10:49;;;;;;;66.72;20.23;;;;;;;-145.18;100.00;46654.53;5030152;28;20048;-67
2023/03/03 08:13:39;;;;;;;64.05;20.33;;;;;;;-145.18;100.00;46652.59;5033240;28;20061;-67
2023/03/03 08:16:10;;;;;;;56.33;18.08;;;;;;;-145.18;100.00;46650.63;5021174;28;20041;-67
2023/03/03 08:18:39;;;;;;;63.78;20.67;;;;;;;-145.18;100.00;46650.63;5033219;28;20149;-67
2023/03/03 08:21:14;;;;;;;70.18;21.17;;;;;;;-145.18;100.00;46652.59;5032899;28;20486;-67
2023/03/03 08:23:40;;;;;;;58.20;20.58;;;;;;;-145.18;100.00;46648.69;5032931;28;20032;-68
2023/03/03 08:26:06;;;;;;;60.93;19.63;;;;;;;-145.18;100.00;46648.69;5033044;28;20033;-67
2023/03/03 08:28:31;;;;;;;63.20;18.70;;;;;;;-145.18;100.00;46646.72;5032849;28;20271;-68
2023/03/03 08:30:57;;;;;;;68.17;21.10;;;;;;;-145.18;100.00;46654.53;5033204;28;20026;-68
2023/03/03 08:33:22;;;;;;;59.00;19.50;;;;;;;-145.18;100.00;46650.63;5032676;28;20076;-67
2023/03/03 08:35:48;;;;;;;56.23;18.63;;;;;;;-145.18;100.00;46646.72;5032838;28;20115;-69
2023/03/03 08:38:16;;;;;;;59.73;18.40;;;;;;;-145.18;100.00;46646.72;5032748;28;20060;-68
2023/03/03 08:40:42;;;;;;;61.63;18.27;;;;;;;-145.18;100.00;46646.72;5032887;28;20030;-68
2023/03/03 08:43:08;;;;;;;54.00;18.30;;;;;;;-145.18;100.00;46642.81;5032403;28;20102;-68
2023/03/03 08:45:34;;;;;;;59.07;19.60;;;;;;;-145.18;100.00;46646.72;5015101;28;20030;-68
2023/03/03 08:48:01;;;;;;;60.83;19.07;;;;;;;-145.18;100.00;46646.72;5032381;28;20037;-68
2023/03/03 08:50:28;;;;;;;51.42;17.33;;;;;;;-145.18;100.00;46650.63;5014816;28;20290;-67
2023/03/03 08:52:54;;;;;;;54.17;17.48;;;;;;;-145.18;100.00;46642.81;5031982;28;20496;-67
2023/03/03 08:55:19;;;;;;;54.17;16.20;;;;;;;-145.18;100.00;46644.78;5032226;28;20068;-68
2023/03/03 08:57:44;;;;;;;46.93;16.77;;;;;;;-145.18;100.00;46650.63;5032295;28;20065;-67
2023/03/03 09:00:14;;;;;;;54.37;16.67;;;;;;;-145.18;100.00;46644.78;5032020;28;20033;-68
2023/03/03 09:02:39;;;;;;;50.58;17.45;;;;;;;-145.18;100.00;46646.72;5031690;28;20053;-67
2023/03/03 09:05:06;;;;;;;53.97;18.27;;;;;;;-145.18;100.00;46644.78;5014057;28;20045;-67
2023/03/03 09:07:32;;;;;;;54.38;19.23;;;;;;;-145.18;100.00;46646.72;5032206;28;20477;-68
2023/03/03 09:09:57;;;;;;;53.07;18.03;;;;;;;-145.18;100.00;46646.72;5031693;28;20054;-68
2023/03/03 09:12:34;;;;;;;41.70;16.97;;;;;;;-145.18;100.00;46648.69;5032189;28;20120;-68
2023/03/03 09:15:11;;;;;;;47.27;17.40;;;;;;;-145.18;100.00;46648.69;5031747;28;20042;-68
2023/03/03 09:17:37;;;;;;;38.50;16.63;;;;;;;-145.18;100.00;46650.63;5031944;28;20273;-68
2023/03/03 09:20:31;;;;;;;45.50;15.80;;;;;;;-145.18;100.00;46650.63;5031469;28;20029;-68
2023/03/03 09:22:58;;;;;;;40.13;14.70;;;;;;;-145.18;100.00;46654.53;5030544;28;20033;-67
2023/03/03 09:25:35;;;;;;;37.17;14.33;;;;;;;-145.18;100.00;46652.59;5014070;28;20025;-68
2023/03/03 09:28:02;;;;;;;35.28;13.32;;;;;;;-145.18;100.00;46652.59;5031214;28;20464;-68
2023/03/03 09:30:46;;;;;;;33.53;12.55;;;;;;;-145.18;100.00;46660.41;5031811;28;20029;-68
2023/03/03 09:33:38;;;;;;;27.73;11.93;;;;;;;-145.18;100.00;46658.44;5031528;28;20049;-68
2023/03/03 09:36:49;;;;;;;31.08;12.05;;;;;;;-145.18;100.00;46656.50;5031349;28;20289;-67
2023/03/03 09:39:24;;;;;;;32.67;12.70;;;;;;;-145.18;100.00;46658.44;5023647;28;20038;-68
2023/03/03 09:42:12;;;;;;;38.17;13.77;;;;;;;-145.18;100.00;46664.31;5030844;28;20041;-68
2023/03/03 09:44:49;;;;;;;29.60;11.07;;;;;;;-145.18;100.00;46666.25;5031067;28;20033;-67
2023/03/03 09:47:45;;;;;;;27.60;11.00;;;;;;;-145.18;100.00;46660.41;5032193;28;20361;-68
2023/03/03 09:50:27;;;;;;;25.80;11.02;;;;;;;-145.18;100.00;46666.25;5031055;28;20436;-67
2023/03/03 09:53:11;;;;;;;27.80;11.10;;;;;;;-145.18;100.00;46668.22;5031020;28;20033;-68
2023/03/03 09:55:36;;;;;;;22.93;9.57;;;;;;;-145.18;100.00;46660.41;5031537;28;20263;-68
2023/03/03 09:58:04;;;;;;;26.43;9.93;;;;;;;-145.18;100.00;46670.16;5030818;28;20281;-67
2023/03/03 10:00:35;;;;;;;21.90;9.77;;;;;;;-145.18;100.00;46666.25;5031105;28;20087;-67
2023/03/03 10:03:18;;;;;;;20.83;9.37;;;;;;;-145.18;100.00;46672.13;5030342;28;20275;-67
2023/03/03 10:05:49;;;;;;;19.17;8.07;;;;;;;-145.18;100.00;46676.03;5030984;28;20778;-68
2023/03/03 10:08:44;;;;;;;17.77;7.47;;;;;;;-145.18;100.00;46672.13;5031239;28;20921;-68
2023/03/03 10:11:20;;;;;;;18.43;7.83;;;;;;;-145.18;100.00;46674.06;5030628;28;20678;-67
2023/03/03 10:14:05;;;;;;;14.87;7.33;;;;;;;-145.18;100.00;46672.13;5030500;28;20262;-67
2023/03/03 10:16:58;;;;;;;18.20;6.40;;;;;;;-145.18;100.00;46652.59;5031109;28;20266;-68
2023/03/03 10:19:40;;;;;;;16.80;6.73;;;;;;;-145.18;100.00;46646.72;5030588;28;20324;-67
2023/03/03 10:22:19;;;;;;;14.47;6.43;;;;;;;-145.18;100.00;46603.75;5030407;28;20428;-67
2023/03/03 10:25:09;;;;;;;14.97;6.53;;;;;;;-145.18;100.00;46560.78;5030364;28;20743;-68
2023/03/03 10:27:39;;;;;;;14.93;6.80;;;;;;;-145.18;100.00;46547.09;5030662;28;20266;-68
2023/03/03 10:30:20;;;;;;;12.20;5.77;;;;;;;-145.18;100.00;46551.00;5030142;28;20352;-67
2023/03/03 10:32:56;;;;;;;11.87;5.50;;;;;;;-145.18;100.00;46564.69;5030433;28;20816;-67
2023/03/03 10:35:27;;;;;;;14.03;5.83;;;;;;;-145.18;100.00;46570.53;5030439;28;20269;-67
2023/03/03 10:37:59;;;;;;;15.33;6.63;;;;;;;-145.18;100.00;46582.25;5030156;28;20271;-68
2023/03/03 10:40:43;;;;;;;15.80;5.93;;;;;;;-145.18;100.00;46584.22;5012479;28;20282;-67
2023/03/03 10:44:01;;;;;;;14.23;5.57;;;;;;;-145.18;100.00;46592.03;5030062;28;20670;-67
2023/03/03 10:47:13;;;;;;;14.77;6.10;;;;;;;-145.18;100.00;46605.69;4930930;29;20623;-67
2023/03/03 10:49:46;;;;;;;14.93;5.37;;;;;;;-145.18;100.00;46611.56;5016540;28;20274;-67
2023/03/03 10:52:36;;;;;;;14.00;5.57;;;;;;;-145.18;100.00;46625.22;5029897;28;20269;-67
2023/03/03 10:55:15;;;;;;;12.40;5.00;;;;;;;-145.18;100.00;46636.94;5029681;28;20358;-67
2023/03/03 10:58:00;;;;;;;14.53;5.80;;;;;;;-145.18;100.00;46650.63;5030192;28;20275;-67
2023/03/03 11:00:49;;;;;;;12.23;5.57;;;;;;;-145.18;100.00;46642.81;4979230;28;20762;-68
2023/03/03 11:03:36;;;;;;;10.70;6.03;;;;;;;-145.18;100.00;46644.78;5029207;28;20045;-68
2023/03/03 11:06:43;;;;;;;14.03;7.23;;;;;;;-145.18;100.00;46664.31;5029618;28;20259;-67
2023/03/03 11:09:27;;;;;;;;;;;;;;;-145.18;100.00;46662.34;5029317;28;20271;-67
2023/03/03 11:12:02;;;;;;;13.37;5.90;;;;;;;-145.18;100.00;46703.38;5029600;28;19959;-68
2023/03/03 11:14:37;;;;;;;13.30;6.07;;;;;;;-145.18;100.00;46738.53;5029748;28;20263;-68